Spokane, Washington
Current Conditions -  °F | °C
As of 4:53 AM on Wednesday 26 Nov 2014 (Local Time) from KSFF Reporting Station
Overcast Overcast  
Wind Chill:   Ceiling: 500
Heat Index:   Visibility: 7mi
Dew Point:   Wind: 3mph
Humidity: 89%   Direction: 60°ENE
Pressure: 30.17"   Gusts: NA
Location:  47.66°N, 117.41°W
Report Text: KSFF 261253Z AUTO 06003KT 7SM OVC005 02/01 A3017 RMK AO2 SLP231 T00220006
Loading
Personal Weather Stations






























Interactive Weather Map New forecast layout! Learn more

10-Day Weather Forecast

Advertisements
Track Severe Weather on mobile